sensor_id;sensor_type;location;lat;lon;timestamp;P1;durP1;ratioP1;P2;durP2;ratioP2
42742;SDS011;28397;44.552;-0.848;2022-07-19T00:02:24;30.40;;;20.83;;
42742;SDS011;28397;44.552;-0.848;2022-07-19T00:04:50;25.27;;;18.88;;
42742;SDS011;28397;44.552;-0.848;2022-07-19T00:07:15;26.98;;;21.00;;
42742;SDS011;28397;44.552;-0.848;2022-07-19T00:09:41;27.20;;;20.45;;
42742;SDS011;28397;44.552;-0.848;2022-07-19T00:12:07;26.27;;;20.55;;
42742;SDS011;28397;44.552;-0.848;2022-07-19T00:14:32;22.23;;;18.15;;
42742;SDS011;28397;44.552;-0.848;2022-07-19T00:16:58;25.45;;;18.67;;
42742;SDS011;28397;44.552;-0.848;2022-07-19T00:19:24;24.58;;;18.52;;
42742;SDS011;28397;44.552;-0.848;2022-07-19T00:21:49;21.30;;;17.67;;
42742;SDS011;28397;44.552;-0.848;2022-07-19T00:24:15;25.52;;;19.63;;
42742;SDS011;28397;44.552;-0.848;2022-07-19T00:26:41;22.63;;;17.90;;
42742;SDS011;28397;44.552;-0.848;2022-07-19T00:29:07;19.98;;;17.20;;
42742;SDS011;28397;44.552;-0.848;2022-07-19T00:31:32;26.50;;;18.33;;
42742;SDS011;28397;44.552;-0.848;2022-07-19T00:33:58;20.83;;;18.02;;
42742;SDS011;28397;44.552;-0.848;2022-07-19T00:36:24;25.73;;;18.55;;
42742;SDS011;28397;44.552;-0.848;2022-07-19T00:38:49;28.70;;;19.27;;
42742;SDS011;28397;44.552;-0.848;2022-07-19T00:41:15;19.80;;;16.95;;
42742;SDS011;28397;44.552;-0.848;2022-07-19T00:43:41;22.95;;;18.52;;
42742;SDS011;28397;44.552;-0.848;2022-07-19T00:46:14;24.23;;;17.58;;
42742;SDS011;28397;44.552;-0.848;2022-07-19T00:48:41;26.15;;;17.58;;
42742;SDS011;28397;44.552;-0.848;2022-07-19T00:51:10;23.55;;;17.90;;
42742;SDS011;28397;44.552;-0.848;2022-07-19T00:53:38;22.60;;;18.38;;
42742;SDS011;28397;44.552;-0.848;2022-07-19T00:56:05;24.15;;;18.70;;
42742;SDS011;28397;44.552;-0.848;2022-07-19T00:58:33;22.83;;;18.25;;
42742;SDS011;28397;44.552;-0.848;2022-07-19T01:01:00;22.92;;;17.70;;
42742;SDS011;28397;44.552;-0.848;2022-07-19T01:03:26;25.25;;;18.60;;
42742;SDS011;28397;44.552;-0.848;2022-07-19T01:05:52;24.33;;;18.90;;
42742;SDS011;28397;44.552;-0.848;2022-07-19T01:08:18;21.58;;;17.60;;
42742;SDS011;28397;44.552;-0.848;2022-07-19T01:10:44;24.80;;;17.80;;
42742;SDS011;28397;44.552;-0.848;2022-07-19T01:13:12;27.23;;;18.80;;
42742;SDS011;28397;44.552;-0.848;2022-07-19T01:15:38;27.10;;;18.00;;
42742;SDS011;28397;44.552;-0.848;2022-07-19T01:18:06;24.23;;;18.73;;
42742;SDS011;28397;44.552;-0.848;2022-07-19T01:20:31;23.60;;;17.75;;
42742;SDS011;28397;44.552;-0.848;2022-07-19T01:22:58;27.83;;;17.85;;
42742;SDS011;28397;44.552;-0.848;2022-07-19T01:25:25;19.33;;;16.55;;
42742;SDS011;28397;44.552;-0.848;2022-07-19T01:27:55;23.40;;;17.23;;
42742;SDS011;28397;44.552;-0.848;2022-07-19T01:30:22;22.23;;;16.45;;
42742;SDS011;28397;44.552;-0.848;2022-07-19T01:32:50;22.75;;;16.33;;
42742;SDS011;28397;44.552;-0.848;2022-07-19T01:35:17;22.98;;;15.68;;
42742;SDS011;28397;44.552;-0.848;2022-07-19T01:37:43;27.98;;;16.33;;
42742;SDS011;28397;44.552;-0.848;2022-07-19T01:40:11;22.90;;;16.58;;
42742;SDS011;28397;44.552;-0.848;2022-07-19T01:42:37;23.92;;;16.25;;
42742;SDS011;28397;44.552;-0.848;2022-07-19T01:45:04;21.67;;;16.92;;
42742;SDS011;28397;44.552;-0.848;2022-07-19T01:47:31;23.20;;;16.85;;
42742;SDS011;28397;44.552;-0.848;2022-07-19T01:49:58;25.75;;;16.20;;
42742;SDS011;28397;44.552;-0.848;2022-07-19T01:52:24;27.40;;;17.27;;
42742;SDS011;28397;44.552;-0.848;2022-07-19T01:54:49;20.48;;;14.85;;
42742;SDS011;28397;44.552;-0.848;2022-07-19T01:57:15;28.15;;;15.82;;
42742;SDS011;28397;44.552;-0.848;2022-07-19T01:59:41;23.23;;;16.88;;
42742;SDS011;28397;44.552;-0.848;2022-07-19T02:02:06;24.20;;;16.77;;
42742;SDS011;28397;44.552;-0.848;2022-07-19T02:04:32;24.33;;;16.38;;
42742;SDS011;28397;44.552;-0.848;2022-07-19T02:06:58;24.60;;;15.43;;
42742;SDS011;28397;44.552;-0.848;2022-07-19T02:09:24;22.20;;;14.65;;
42742;SDS011;28397;44.552;-0.848;2022-07-19T02:11:50;25.98;;;15.93;;
42742;SDS011;28397;44.552;-0.848;2022-07-19T02:14:16;26.75;;;16.67;;
42742;SDS011;28397;44.552;-0.848;2022-07-19T02:16:42;20.77;;;15.88;;
42742;SDS011;28397;44.552;-0.848;2022-07-19T02:19:08;27.20;;;15.07;;
42742;SDS011;28397;44.552;-0.848;2022-07-19T02:21:34;27.45;;;14.43;;
42742;SDS011;28397;44.552;-0.848;2022-07-19T02:24:01;23.55;;;15.10;;
42742;SDS011;28397;44.552;-0.848;2022-07-19T02:26:27;23.90;;;13.75;;
42742;SDS011;28397;44.552;-0.848;2022-07-19T02:28:53;28.70;;;15.13;;
42742;SDS011;28397;44.552;-0.848;2022-07-19T02:31:19;19.73;;;14.00;;
42742;SDS011;28397;44.552;-0.848;2022-07-19T02:33:45;23.20;;;13.40;;
42742;SDS011;28397;44.552;-0.848;2022-07-19T02:36:11;21.23;;;13.52;;
42742;SDS011;28397;44.552;-0.848;2022-07-19T02:38:37;20.65;;;12.73;;
42742;SDS011;28397;44.552;-0.848;2022-07-19T02:41:03;22.30;;;14.20;;
42742;SDS011;28397;44.552;-0.848;2022-07-19T02:43:29;21.75;;;14.00;;
42742;SDS011;28397;44.552;-0.848;2022-07-19T02:45:55;23.20;;;12.90;;
42742;SDS011;28397;44.552;-0.848;2022-07-19T02:48:20;21.83;;;13.43;;
42742;SDS011;28397;44.552;-0.848;2022-07-19T02:50:46;23.17;;;13.30;;
42742;SDS011;28397;44.552;-0.848;2022-07-19T02:53:12;20.85;;;12.32;;
42742;SDS011;28397;44.552;-0.848;2022-07-19T02:55:38;25.50;;;13.00;;
42742;SDS011;28397;44.552;-0.848;2022-07-19T02:58:03;20.38;;;12.18;;
42742;SDS011;28397;44.552;-0.848;2022-07-19T03:00:29;22.08;;;12.88;;
42742;SDS011;28397;44.552;-0.848;2022-07-19T03:02:56;20.95;;;12.45;;
42742;SDS011;28397;44.552;-0.848;2022-07-19T03:05:43;18.00;;;11.63;;
42742;SDS011;28397;44.552;-0.848;2022-07-19T03:08:09;19.95;;;13.05;;
42742;SDS011;28397;44.552;-0.848;2022-07-19T03:10:35;25.85;;;14.93;;
42742;SDS011;28397;44.552;-0.848;2022-07-19T03:13:00;28.48;;;17.67;;
42742;SDS011;28397;44.552;-0.848;2022-07-19T03:15:26;29.63;;;16.48;;
42742;SDS011;28397;44.552;-0.848;2022-07-19T03:17:52;28.90;;;18.20;;
42742;SDS011;28397;44.552;-0.848;2022-07-19T03:20:17;28.35;;;18.05;;
42742;SDS011;28397;44.552;-0.848;2022-07-19T03:22:43;27.08;;;15.82;;
42742;SDS011;28397;44.552;-0.848;2022-07-19T03:25:09;25.75;;;16.33;;
42742;SDS011;28397;44.552;-0.848;2022-07-19T03:27:35;24.60;;;17.95;;
42742;SDS011;28397;44.552;-0.848;2022-07-19T03:30:00;29.23;;;18.00;;
42742;SDS011;28397;44.552;-0.848;2022-07-19T03:32:26;35.90;;;20.33;;
42742;SDS011;28397;44.552;-0.848;2022-07-19T03:34:52;32.75;;;21.83;;
42742;SDS011;28397;44.552;-0.848;2022-07-19T03:37:18;35.20;;;22.85;;
42742;SDS011;28397;44.552;-0.848;2022-07-19T03:39:44;35.13;;;23.80;;
42742;SDS011;28397;44.552;-0.848;2022-07-19T03:42:09;38.08;;;27.45;;
42742;SDS011;28397;44.552;-0.848;2022-07-19T03:44:35;42.47;;;31.60;;
42742;SDS011;28397;44.552;-0.848;2022-07-19T03:47:01;43.22;;;32.97;;
42742;SDS011;28397;44.552;-0.848;2022-07-19T03:49:26;43.78;;;32.85;;
42742;SDS011;28397;44.552;-0.848;2022-07-19T03:51:52;46.95;;;34.40;;
42742;SDS011;28397;44.552;-0.848;2022-07-19T03:54:18;44.63;;;32.45;;
42742;SDS011;28397;44.552;-0.848;2022-07-19T03:56:44;36.95;;;28.48;;
42742;SDS011;28397;44.552;-0.848;2022-07-19T03:59:09;36.70;;;26.67;;
42742;SDS011;28397;44.552;-0.848;2022-07-19T04:01:35;31.85;;;24.65;;
42742;SDS011;28397;44.552;-0.848;2022-07-19T04:04:03;32.97;;;23.55;;
42742;SDS011;28397;44.552;-0.848;2022-07-19T04:06:29;31.65;;;23.42;;
42742;SDS011;28397;44.552;-0.848;2022-07-19T04:08:55;33.10;;;23.42;;
42742;SDS011;28397;44.552;-0.848;2022-07-19T04:11:21;35.17;;;23.58;;
42742;SDS011;28397;44.552;-0.848;2022-07-19T04:13:47;25.50;;;18.90;;
42742;SDS011;28397;44.552;-0.848;2022-07-19T04:16:12;23.50;;;15.00;;
42742;SDS011;28397;44.552;-0.848;2022-07-19T04:18:38;24.52;;;16.98;;
42742;SDS011;28397;44.552;-0.848;2022-07-19T04:21:04;20.90;;;14.02;;
42742;SDS011;28397;44.552;-0.848;2022-07-19T04:23:30;18.27;;;13.07;;
42742;SDS011;28397;44.552;-0.848;2022-07-19T04:25:56;19.98;;;12.90;;
42742;SDS011;28397;44.552;-0.848;2022-07-19T04:28:22;20.27;;;13.75;;
42742;SDS011;28397;44.552;-0.848;2022-07-19T04:30:48;24.95;;;13.70;;
42742;SDS011;28397;44.552;-0.848;2022-07-19T04:33:14;23.20;;;12.75;;
42742;SDS011;28397;44.552;-0.848;2022-07-19T04:35:40;18.25;;;11.82;;
42742;SDS011;28397;44.552;-0.848;2022-07-19T04:38:06;23.13;;;11.77;;
42742;SDS011;28397;44.552;-0.848;2022-07-19T04:40:32;23.80;;;11.52;;
42742;SDS011;28397;44.552;-0.848;2022-07-19T04:42:57;22.60;;;11.95;;
42742;SDS011;28397;44.552;-0.848;2022-07-19T04:45:23;20.08;;;11.05;;
42742;SDS011;28397;44.552;-0.848;2022-07-19T04:47:49;18.45;;;11.35;;
42742;SDS011;28397;44.552;-0.848;2022-07-19T04:50:14;20.40;;;10.75;;
42742;SDS011;28397;44.552;-0.848;2022-07-19T04:52:40;21.25;;;11.90;;
42742;SDS011;28397;44.552;-0.848;2022-07-19T04:55:06;18.02;;;11.70;;
42742;SDS011;28397;44.552;-0.848;2022-07-19T04:57:32;19.45;;;12.35;;
42742;SDS011;28397;44.552;-0.848;2022-07-19T04:59:58;20.23;;;13.27;;
42742;SDS011;28397;44.552;-0.848;2022-07-19T05:02:24;21.65;;;13.75;;
42742;SDS011;28397;44.552;-0.848;2022-07-19T05:04:49;20.35;;;13.55;;
42742;SDS011;28397;44.552;-0.848;2022-07-19T05:07:16;21.25;;;13.25;;
42742;SDS011;28397;44.552;-0.848;2022-07-19T05:09:42;22.52;;;14.25;;
42742;SDS011;28397;44.552;-0.848;2022-07-19T05:12:09;26.73;;;15.38;;
42742;SDS011;28397;44.552;-0.848;2022-07-19T05:14:36;22.83;;;14.88;;
42742;SDS011;28397;44.552;-0.848;2022-07-19T05:17:02;25.08;;;14.07;;
42742;SDS011;28397;44.552;-0.848;2022-07-19T05:19:27;23.25;;;14.68;;
42742;SDS011;28397;44.552;-0.848;2022-07-19T05:21:53;22.95;;;14.90;;
42742;SDS011;28397;44.552;-0.848;2022-07-19T05:24:19;21.73;;;15.02;;
42742;SDS011;28397;44.552;-0.848;2022-07-19T05:26:44;22.60;;;13.52;;
42742;SDS011;28397;44.552;-0.848;2022-07-19T05:29:10;20.08;;;13.05;;
42742;SDS011;28397;44.552;-0.848;2022-07-19T05:31:36;21.52;;;13.48;;
42742;SDS011;28397;44.552;-0.848;2022-07-19T05:34:02;22.90;;;13.30;;
42742;SDS011;28397;44.552;-0.848;2022-07-19T05:36:28;19.73;;;12.75;;
42742;SDS011;28397;44.552;-0.848;2022-07-19T05:38:54;20.90;;;12.30;;
42742;SDS011;28397;44.552;-0.848;2022-07-19T05:41:21;16.70;;;11.77;;
42742;SDS011;28397;44.552;-0.848;2022-07-19T05:43:47;20.80;;;12.52;;
42742;SDS011;28397;44.552;-0.848;2022-07-19T05:46:13;20.38;;;13.40;;
42742;SDS011;28397;44.552;-0.848;2022-07-19T05:48:39;24.08;;;13.57;;
42742;SDS011;28397;44.552;-0.848;2022-07-19T05:51:05;22.48;;;13.10;;
42742;SDS011;28397;44.552;-0.848;2022-07-19T05:53:31;24.13;;;13.68;;
42742;SDS011;28397;44.552;-0.848;2022-07-19T05:55:57;25.85;;;13.40;;
42742;SDS011;28397;44.552;-0.848;2022-07-19T05:58:22;24.45;;;13.20;;
42742;SDS011;28397;44.552;-0.848;2022-07-19T06:00:49;20.83;;;13.32;;
42742;SDS011;28397;44.552;-0.848;2022-07-19T06:03:33;22.20;;;12.80;;
42742;SDS011;28397;44.552;-0.848;2022-07-19T06:05:59;18.80;;;12.25;;
42742;SDS011;28397;44.552;-0.848;2022-07-19T06:08:25;21.20;;;12.10;;
42742;SDS011;28397;44.552;-0.848;2022-07-19T06:10:50;18.58;;;11.65;;
42742;SDS011;28397;44.552;-0.848;2022-07-19T06:13:16;18.35;;;11.38;;
42742;SDS011;28397;44.552;-0.848;2022-07-19T06:15:42;16.10;;;9.93;;
42742;SDS011;28397;44.552;-0.848;2022-07-19T06:18:08;19.05;;;11.13;;
42742;SDS011;28397;44.552;-0.848;2022-07-19T06:20:33;20.30;;;10.77;;
42742;SDS011;28397;44.552;-0.848;2022-07-19T06:22:59;19.52;;;10.60;;
42742;SDS011;28397;44.552;-0.848;2022-07-19T06:25:25;19.05;;;10.48;;
42742;SDS011;28397;44.552;-0.848;2022-07-19T06:27:51;19.90;;;10.57;;
42742;SDS011;28397;44.552;-0.848;2022-07-19T06:30:16;20.88;;;11.40;;
42742;SDS011;28397;44.552;-0.848;2022-07-19T06:32:42;23.50;;;12.65;;
42742;SDS011;28397;44.552;-0.848;2022-07-19T06:35:08;20.15;;;12.07;;
42742;SDS011;28397;44.552;-0.848;2022-07-19T06:37:34;25.20;;;13.95;;
42742;SDS011;28397;44.552;-0.848;2022-07-19T06:39:59;24.85;;;15.75;;
42742;SDS011;28397;44.552;-0.848;2022-07-19T06:42:25;24.27;;;16.27;;
42742;SDS011;28397;44.552;-0.848;2022-07-19T06:44:51;24.67;;;17.75;;
42742;SDS011;28397;44.552;-0.848;2022-07-19T06:47:17;28.13;;;20.35;;
42742;SDS011;28397;44.552;-0.848;2022-07-19T06:49:42;33.88;;;22.20;;
42742;SDS011;28397;44.552;-0.848;2022-07-19T06:52:08;25.50;;;19.35;;
42742;SDS011;28397;44.552;-0.848;2022-07-19T06:54:34;37.25;;;20.55;;
42742;SDS011;28397;44.552;-0.848;2022-07-19T06:56:59;28.80;;;19.05;;
42742;SDS011;28397;44.552;-0.848;2022-07-19T06:59:26;33.78;;;19.42;;
42742;SDS011;28397;44.552;-0.848;2022-07-19T07:01:52;28.45;;;19.83;;
42742;SDS011;28397;44.552;-0.848;2022-07-19T07:04:18;33.72;;;22.85;;
42742;SDS011;28397;44.552;-0.848;2022-07-19T07:06:44;37.20;;;23.30;;
42742;SDS011;28397;44.552;-0.848;2022-07-19T07:09:10;33.92;;;21.65;;
42742;SDS011;28397;44.552;-0.848;2022-07-19T07:11:36;38.17;;;23.85;;
42742;SDS011;28397;44.552;-0.848;2022-07-19T07:14:01;30.67;;;22.17;;
42742;SDS011;28397;44.552;-0.848;2022-07-19T07:16:27;32.67;;;22.33;;
42742;SDS011;28397;44.552;-0.848;2022-07-19T07:18:53;32.45;;;20.10;;
42742;SDS011;28397;44.552;-0.848;2022-07-19T07:21:18;30.80;;;19.55;;
42742;SDS011;28397;44.552;-0.848;2022-07-19T07:23:44;30.75;;;19.35;;
42742;SDS011;28397;44.552;-0.848;2022-07-19T07:26:10;29.08;;;19.38;;
42742;SDS011;28397;44.552;-0.848;2022-07-19T07:28:36;31.15;;;19.48;;
42742;SDS011;28397;44.552;-0.848;2022-07-19T07:31:02;30.80;;;19.00;;
42742;SDS011;28397;44.552;-0.848;2022-07-19T07:33:28;30.92;;;20.45;;
42742;SDS011;28397;44.552;-0.848;2022-07-19T07:35:53;34.50;;;21.13;;
42742;SDS011;28397;44.552;-0.848;2022-07-19T07:38:19;36.83;;;21.05;;
42742;SDS011;28397;44.552;-0.848;2022-07-19T07:40:45;31.88;;;20.73;;
42742;SDS011;28397;44.552;-0.848;2022-07-19T07:43:11;33.40;;;20.48;;
42742;SDS011;28397;44.552;-0.848;2022-07-19T07:45:37;29.67;;;19.98;;
42742;SDS011;28397;44.552;-0.848;2022-07-19T07:48:03;32.38;;;20.25;;
42742;SDS011;28397;44.552;-0.848;2022-07-19T07:50:28;33.95;;;21.35;;
42742;SDS011;28397;44.552;-0.848;2022-07-19T07:52:54;31.05;;;20.02;;
42742;SDS011;28397;44.552;-0.848;2022-07-19T07:55:20;29.17;;;19.83;;
42742;SDS011;28397;44.552;-0.848;2022-07-19T07:57:45;30.35;;;19.90;;
42742;SDS011;28397;44.552;-0.848;2022-07-19T08:00:11;31.65;;;19.20;;
42742;SDS011;28397;44.552;-0.848;2022-07-19T08:02:42;30.48;;;20.35;;
42742;SDS011;28397;44.552;-0.848;2022-07-19T08:05:09;30.30;;;19.15;;
42742;SDS011;28397;44.552;-0.848;2022-07-19T08:07:36;29.02;;;18.48;;
42742;SDS011;28397;44.552;-0.848;2022-07-19T08:10:04;32.10;;;18.83;;
42742;SDS011;28397;44.552;-0.848;2022-07-19T08:12:31;28.50;;;17.90;;
42742;SDS011;28397;44.552;-0.848;2022-07-19T08:14:57;31.35;;;22.33;;
42742;SDS011;28397;44.552;-0.848;2022-07-19T08:17:23;40.65;;;29.05;;
42742;SDS011;28397;44.552;-0.848;2022-07-19T08:19:49;38.78;;;27.92;;
42742;SDS011;28397;44.552;-0.848;2022-07-19T08:22:15;37.72;;;25.85;;
42742;SDS011;28397;44.552;-0.848;2022-07-19T08:24:42;41.83;;;32.80;;
42742;SDS011;28397;44.552;-0.848;2022-07-19T08:27:08;43.85;;;35.13;;
42742;SDS011;28397;44.552;-0.848;2022-07-19T08:29:33;41.33;;;32.22;;
42742;SDS011;28397;44.552;-0.848;2022-07-19T08:31:59;43.08;;;32.90;;
42742;SDS011;28397;44.552;-0.848;2022-07-19T08:34:25;41.42;;;31.38;;
42742;SDS011;28397;44.552;-0.848;2022-07-19T08:36:50;39.33;;;34.03;;
42742;SDS011;28397;44.552;-0.848;2022-07-19T08:39:16;47.45;;;36.42;;
42742;SDS011;28397;44.552;-0.848;2022-07-19T08:41:42;50.50;;;40.80;;
42742;SDS011;28397;44.552;-0.848;2022-07-19T08:44:12;48.80;;;38.17;;
42742;SDS011;28397;44.552;-0.848;2022-07-19T08:46:41;56.50;;;45.60;;
42742;SDS011;28397;44.552;-0.848;2022-07-19T08:49:10;58.45;;;47.30;;
42742;SDS011;28397;44.552;-0.848;2022-07-19T08:51:36;56.03;;;46.33;;
42742;SDS011;28397;44.552;-0.848;2022-07-19T08:54:02;68.45;;;55.38;;
42742;SDS011;28397;44.552;-0.848;2022-07-19T08:56:28;63.20;;;51.67;;
42742;SDS011;28397;44.552;-0.848;2022-07-19T08:59:12;69.25;;;58.63;;
42742;SDS011;28397;44.552;-0.848;2022-07-19T09:01:38;67.32;;;57.47;;
42742;SDS011;28397;44.552;-0.848;2022-07-19T09:04:08;76.43;;;62.85;;
42742;SDS011;28397;44.552;-0.848;2022-07-19T09:06:46;69.28;;;57.97;;
42742;SDS011;28397;44.552;-0.848;2022-07-19T09:09:18;70.43;;;60.40;;
42742;SDS011;28397;44.552;-0.848;2022-07-19T09:11:46;69.63;;;60.47;;
42742;SDS011;28397;44.552;-0.848;2022-07-19T09:14:14;68.85;;;59.47;;
42742;SDS011;28397;44.552;-0.848;2022-07-19T09:16:48;71.28;;;58.15;;
42742;SDS011;28397;44.552;-0.848;2022-07-19T09:19:19;65.28;;;57.20;;
42742;SDS011;28397;44.552;-0.848;2022-07-19T09:24:32;71.30;;;56.83;;
42742;SDS011;28397;44.552;-0.848;2022-07-19T09:27:24;70.38;;;56.13;;
42742;SDS011;28397;44.552;-0.848;2022-07-19T09:29:54;74.55;;;61.97;;
42742;SDS011;28397;44.552;-0.848;2022-07-19T09:32:23;67.00;;;57.10;;
42742;SDS011;28397;44.552;-0.848;2022-07-19T09:34:56;66.63;;;56.33;;
42742;SDS011;28397;44.552;-0.848;2022-07-19T09:37:30;67.63;;;58.20;;
42742;SDS011;28397;44.552;-0.848;2022-07-19T09:39:59;74.20;;;62.45;;
42742;SDS011;28397;44.552;-0.848;2022-07-19T09:42:39;73.55;;;64.15;;
42742;SDS011;28397;44.552;-0.848;2022-07-19T09:45:07;72.18;;;59.42;;
42742;SDS011;28397;44.552;-0.848;2022-07-19T09:47:39;66.00;;;57.05;;
42742;SDS011;28397;44.552;-0.848;2022-07-19T09:50:06;77.82;;;59.78;;
42742;SDS011;28397;44.552;-0.848;2022-07-19T09:52:34;76.07;;;65.15;;
42742;SDS011;28397;44.552;-0.848;2022-07-19T09:55:04;77.13;;;65.07;;
42742;SDS011;28397;44.552;-0.848;2022-07-19T09:57:33;73.65;;;63.03;;
42742;SDS011;28397;44.552;-0.848;2022-07-19T10:00:02;80.80;;;69.45;;
42742;SDS011;28397;44.552;-0.848;2022-07-19T10:02:30;84.03;;;72.50;;
42742;SDS011;28397;44.552;-0.848;2022-07-19T10:05:01;75.95;;;66.65;;
42742;SDS011;28397;44.552;-0.848;2022-07-19T10:07:31;103.88;;;68.68;;
42742;SDS011;28397;44.552;-0.848;2022-07-19T10:09:59;74.03;;;64.15;;
42742;SDS011;28397;44.552;-0.848;2022-07-19T10:12:27;64.93;;;52.58;;
42742;SDS011;28397;44.552;-0.848;2022-07-19T10:14:54;65.35;;;55.53;;
42742;SDS011;28397;44.552;-0.848;2022-07-19T10:17:29;71.40;;;61.67;;
42742;SDS011;28397;44.552;-0.848;2022-07-19T10:22:33;60.83;;;50.70;;
42742;SDS011;28397;44.552;-0.848;2022-07-19T10:32:30;20.02;;;13.25;;
42742;SDS011;28397;44.552;-0.848;2022-07-19T10:38:06;30.35;;;21.98;;
42742;SDS011;28397;44.552;-0.848;2022-07-19T10:43:08;20.35;;;14.50;;
42742;SDS011;28397;44.552;-0.848;2022-07-19T10:45:38;12.85;;;10.20;;
42742;SDS011;28397;44.552;-0.848;2022-07-19T10:48:07;18.58;;;12.73;;
42742;SDS011;28397;44.552;-0.848;2022-07-19T10:50:43;14.70;;;8.82;;
42742;SDS011;28397;44.552;-0.848;2022-07-19T10:56:26;13.85;;;7.15;;
42742;SDS011;28397;44.552;-0.848;2022-07-19T10:58:56;11.80;;;6.00;;
42742;SDS011;28397;44.552;-0.848;2022-07-19T11:01:22;9.30;;;6.25;;
42742;SDS011;28397;44.552;-0.848;2022-07-19T11:03:50;10.93;;;6.80;;
42742;SDS011;28397;44.552;-0.848;2022-07-19T11:06:24;11.73;;;6.72;;
42742;SDS011;28397;44.552;-0.848;2022-07-19T11:08:57;10.57;;;5.93;;
42742;SDS011;28397;44.552;-0.848;2022-07-19T11:11:24;11.93;;;5.73;;
42742;SDS011;28397;44.552;-0.848;2022-07-19T11:13:52;11.38;;;5.85;;
42742;SDS011;28397;44.552;-0.848;2022-07-19T11:16:25;11.52;;;5.50;;
42742;SDS011;28397;44.552;-0.848;2022-07-19T11:19:01;7.88;;;4.90;;
42742;SDS011;28397;44.552;-0.848;2022-07-19T11:21:32;10.10;;;5.50;;
42742;SDS011;28397;44.552;-0.848;2022-07-19T11:23:59;10.70;;;5.32;;
42742;SDS011;28397;44.552;-0.848;2022-07-19T11:26:26;9.40;;;5.55;;
42742;SDS011;28397;44.552;-0.848;2022-07-19T11:29:03;10.38;;;5.60;;
42742;SDS011;28397;44.552;-0.848;2022-07-19T11:31:29;8.45;;;5.13;;
42742;SDS011;28397;44.552;-0.848;2022-07-19T11:33:55;9.43;;;5.75;;
42742;SDS011;28397;44.552;-0.848;2022-07-19T11:36:21;9.68;;;4.90;;
42742;SDS011;28397;44.552;-0.848;2022-07-19T11:38:49;13.32;;;5.32;;
42742;SDS011;28397;44.552;-0.848;2022-07-19T11:41:20;9.18;;;5.40;;
42742;SDS011;28397;44.552;-0.848;2022-07-19T11:43:57;9.35;;;5.13;;
42742;SDS011;28397;44.552;-0.848;2022-07-19T11:46:31;8.20;;;4.75;;
42742;SDS011;28397;44.552;-0.848;2022-07-19T11:49:06;9.77;;;5.65;;
42742;SDS011;28397;44.552;-0.848;2022-07-19T11:51:33;7.75;;;5.05;;
42742;SDS011;28397;44.552;-0.848;2022-07-19T11:54:00;11.55;;;5.43;;
42742;SDS011;28397;44.552;-0.848;2022-07-19T11:56:28;12.07;;;5.35;;
42742;SDS011;28397;44.552;-0.848;2022-07-19T11:58:56;11.77;;;5.15;;
42742;SDS011;28397;44.552;-0.848;2022-07-19T12:01:27;10.90;;;5.72;;
42742;SDS011;28397;44.552;-0.848;2022-07-19T12:04:01;11.90;;;5.50;;
42742;SDS011;28397;44.552;-0.848;2022-07-19T12:09:26;13.50;;;5.68;;
42742;SDS011;28397;44.552;-0.848;2022-07-19T12:11:54;12.20;;;5.60;;
42742;SDS011;28397;44.552;-0.848;2022-07-19T12:19:40;9.70;;;4.88;;
42742;SDS011;28397;44.552;-0.848;2022-07-19T12:22:25;12.30;;;5.32;;
42742;SDS011;28397;44.552;-0.848;2022-07-19T12:24:51;12.13;;;5.35;;
42742;SDS011;28397;44.552;-0.848;2022-07-19T12:27:16;10.70;;;5.22;;
42742;SDS011;28397;44.552;-0.848;2022-07-19T12:32:09;10.05;;;5.10;;
42742;SDS011;28397;44.552;-0.848;2022-07-19T12:37:25;13.10;;;5.28;;
42742;SDS011;28397;44.552;-0.848;2022-07-19T12:42:23;10.20;;;5.20;;
42742;SDS011;28397;44.552;-0.848;2022-07-19T12:44:49;14.65;;;5.65;;
42742;SDS011;28397;44.552;-0.848;2022-07-19T12:47:15;11.82;;;5.55;;
42742;SDS011;28397;44.552;-0.848;2022-07-19T12:49:42;12.55;;;5.10;;
42742;SDS011;28397;44.552;-0.848;2022-07-19T12:52:12;11.88;;;5.28;;
42742;SDS011;28397;44.552;-0.848;2022-07-19T12:54:38;9.85;;;4.72;;
42742;SDS011;28397;44.552;-0.848;2022-07-19T12:57:04;14.32;;;5.10;;
42742;SDS011;28397;44.552;-0.848;2022-07-19T12:59:29;11.32;;;5.00;;
42742;SDS011;28397;44.552;-0.848;2022-07-19T13:02:04;11.57;;;5.15;;
42742;SDS011;28397;44.552;-0.848;2022-07-19T13:04:35;11.45;;;5.18;;
42742;SDS011;28397;44.552;-0.848;2022-07-19T13:07:01;12.18;;;4.68;;
42742;SDS011;28397;44.552;-0.848;2022-07-19T13:09:26;16.65;;;4.82;;
42742;SDS011;28397;44.552;-0.848;2022-07-19T13:11:52;13.02;;;5.10;;
42742;SDS011;28397;44.552;-0.848;2022-07-19T13:14:18;12.07;;;4.97;;
42742;SDS011;28397;44.552;-0.848;2022-07-19T13:16:44;13.55;;;4.72;;
42742;SDS011;28397;44.552;-0.848;2022-07-19T13:19:09;12.40;;;4.78;;
42742;SDS011;28397;44.552;-0.848;2022-07-19T13:21:35;10.00;;;4.70;;
42742;SDS011;28397;44.552;-0.848;2022-07-19T13:24:01;13.20;;;4.90;;
42742;SDS011;28397;44.552;-0.848;2022-07-19T13:26:27;22.52;;;5.30;;
42742;SDS011;28397;44.552;-0.848;2022-07-19T13:28:53;15.52;;;4.45;;
42742;SDS011;28397;44.552;-0.848;2022-07-19T13:31:19;20.98;;;4.80;;
42742;SDS011;28397;44.552;-0.848;2022-07-19T13:33:45;16.35;;;5.07;;
42742;SDS011;28397;44.552;-0.848;2022-07-19T13:36:10;10.18;;;4.30;;
42742;SDS011;28397;44.552;-0.848;2022-07-19T13:38:36;12.13;;;4.25;;
42742;SDS011;28397;44.552;-0.848;2022-07-19T13:41:04;13.23;;;4.68;;
42742;SDS011;28397;44.552;-0.848;2022-07-19T13:43:30;11.88;;;4.53;;
42742;SDS011;28397;44.552;-0.848;2022-07-19T13:45:55;13.77;;;4.55;;
42742;SDS011;28397;44.552;-0.848;2022-07-19T13:48:21;11.57;;;4.32;;
42742;SDS011;28397;44.552;-0.848;2022-07-19T13:50:47;11.57;;;3.92;;
42742;SDS011;28397;44.552;-0.848;2022-07-19T13:53:12;10.95;;;4.07;;
42742;SDS011;28397;44.552;-0.848;2022-07-19T13:55:38;13.15;;;4.18;;
42742;SDS011;28397;44.552;-0.848;2022-07-19T13:58:04;11.43;;;4.18;;
42742;SDS011;28397;44.552;-0.848;2022-07-19T14:00:30;9.68;;;3.60;;
42742;SDS011;28397;44.552;-0.848;2022-07-19T14:02:56;9.30;;;3.65;;
42742;SDS011;28397;44.552;-0.848;2022-07-19T14:05:21;11.10;;;4.07;;
42742;SDS011;28397;44.552;-0.848;2022-07-19T14:07:47;11.27;;;3.78;;
42742;SDS011;28397;44.552;-0.848;2022-07-19T14:10:13;8.18;;;3.45;;
42742;SDS011;28397;44.552;-0.848;2022-07-19T14:12:39;10.77;;;3.75;;
42742;SDS011;28397;44.552;-0.848;2022-07-19T14:15:05;12.23;;;3.75;;
42742;SDS011;28397;44.552;-0.848;2022-07-19T14:17:31;8.75;;;3.58;;
42742;SDS011;28397;44.552;-0.848;2022-07-19T14:19:57;10.75;;;3.35;;
42742;SDS011;28397;44.552;-0.848;2022-07-19T14:22:23;9.35;;;3.35;;
42742;SDS011;28397;44.552;-0.848;2022-07-19T14:24:48;11.00;;;3.60;;
42742;SDS011;28397;44.552;-0.848;2022-07-19T14:27:14;8.10;;;3.65;;
42742;SDS011;28397;44.552;-0.848;2022-07-19T14:29:41;6.88;;;3.28;;
42742;SDS011;28397;44.552;-0.848;2022-07-19T14:32:07;9.07;;;2.90;;
42742;SDS011;28397;44.552;-0.848;2022-07-19T14:34:33;7.95;;;3.17;;
42742;SDS011;28397;44.552;-0.848;2022-07-19T14:36:59;9.95;;;3.55;;
42742;SDS011;28397;44.552;-0.848;2022-07-19T14:39:24;7.60;;;3.10;;
42742;SDS011;28397;44.552;-0.848;2022-07-19T14:41:50;7.45;;;3.08;;
42742;SDS011;28397;44.552;-0.848;2022-07-19T14:44:16;9.63;;;3.58;;
42742;SDS011;28397;44.552;-0.848;2022-07-19T14:46:41;9.88;;;3.25;;
42742;SDS011;28397;44.552;-0.848;2022-07-19T14:49:07;8.82;;;3.05;;
42742;SDS011;28397;44.552;-0.848;2022-07-19T14:51:33;9.48;;;3.00;;